Time;durP1;ratioP1;P1;durP2;ratioP2;P2;SDS_P1;SDS_P2;PMS_P1;PMS_P2;Temp;Humidity;BMP_temperature;BMP_pressure;BME280_temperature;BME280_humidity;BME280_pressure;Samples;Min_cycle;Max_cycle;Signal;HPM_P1;HPM_P2
2021/06/01 00:02:34;;;;;;;23.10;10.75;;;16.40;69.70;;;;;;5006005;28;20116;-74
2021/06/01 00:05:18;;;;;;;21.10;11.00;;;16.40;69.50;;;;;;4996600;28;20346;-73
2021/06/01 00:08:02;;;;;;;17.45;10.82;;;16.40;70.20;;;;;;5013559;28;20113;-73
2021/06/01 00:10:46;;;;;;;14.35;9.65;;;16.40;70.40;;;;;;5011297;28;20041;-73
2021/06/01 00:13:30;;;;;;;13.70;8.70;;;16.30;69.70;;;;;;5001970;28;20032;-73
2021/06/01 00:16:15;;;;;;;12.02;7.80;;;16.30;69.60;;;;;;5012495;28;20117;-72
2021/06/01 00:18:59;;;;;;;14.45;7.53;;;16.30;69.50;;;;;;5009728;28;20386;-73
2021/06/01 00:21:43;;;;;;;11.85;7.97;;;16.30;69.40;;;;;;4997390;28;20437;-73
2021/06/01 00:24:27;;;;;;;11.45;8.38;;;16.30;69.40;;;;;;5010304;28;20057;-73
2021/06/01 00:27:11;;;;;;;14.63;7.93;;;16.30;69.70;;;;;;5017803;28;20045;-72
2021/06/01 00:29:55;;;;;;;13.45;8.27;;;16.30;69.70;;;;;;5011742;28;20064;-73
2021/06/01 00:32:39;;;;;;;15.10;8.25;;;16.30;69.80;;;;;;5011701;28;20041;-72
2021/06/01 00:35:23;;;;;;;13.48;8.02;;;16.20;69.90;;;;;;5011983;28;20072;-72
2021/06/01 00:38:07;;;;;;;15.20;9.05;;;16.30;70.10;;;;;;5016754;28;20107;-73
2021/06/01 00:40:51;;;;;;;18.23;8.50;;;16.30;70.10;;;;;;4998729;28;20100;-72
2021/06/01 00:43:35;;;;;;;16.58;8.35;;;16.30;70.40;;;;;;5005797;28;20044;-72
2021/06/01 00:46:19;;;;;;;20.30;10.00;;;16.30;70.50;;;;;;5017114;28;20087;-72
2021/06/01 00:49:04;;;;;;;13.65;8.68;;;16.30;70.80;;;;;;5006129;28;20048;-71
2021/06/01 00:51:48;;;;;;;15.60;8.82;;;16.30;71.10;;;;;;5009211;28;20084;-72
2021/06/01 00:54:33;;;;;;;12.80;8.05;;;16.30;71.70;;;;;;4991610;28;20033;-71
2021/06/01 00:57:17;;;;;;;12.02;8.18;;;16.30;71.40;;;;;;5014864;28;20161;-72
2021/06/01 01:00:04;;;;;;;16.25;8.70;;;16.20;72.80;;;;;;4991890;28;20041;-72
2021/06/01 01:02:48;;;;;;;11.18;7.75;;;16.20;73.00;;;;;;5004384;28;20056;-72
2021/06/01 01:05:37;;;;;;;11.95;7.85;;;16.20;73.10;;;;;;5010724;28;20083;-71
2021/06/01 01:11:35;;;;;;;16.35;9.32;;;16.10;73.40;;;;;;5023928;28;20040;-71
2021/06/01 01:14:25;;;;;;;14.20;8.32;;;16.10;73.70;;;;;;5014762;28;20041;-71
2021/06/01 01:17:22;;;;;;;13.57;8.23;;;16.10;73.80;;;;;;5026333;28;20061;-71
2021/06/01 01:20:22;;;;;;;13.00;8.02;;;16.00;74.20;;;;;;5014932;28;20041;-71
2021/06/01 01:23:18;;;;;;;15.23;8.73;;;16.00;74.20;;;;;;5013993;28;20108;-72
2021/06/01 01:26:12;;;;;;;13.38;9.00;;;16.00;74.60;;;;;;5024464;28;20036;-72
2021/06/01 01:29:21;;;;;;;13.80;8.83;;;16.00;74.80;;;;;;5013425;28;20170;-73
2021/06/01 01:32:14;;;;;;;13.63;8.35;;;16.00;75.20;;;;;;5017754;28;20064;-72
2021/06/01 01:34:59;;;;;;;13.52;8.00;;;15.90;75.20;;;;;;5014544;28;20080;-73
2021/06/01 01:37:45;;;;;;;18.98;10.23;;;15.90;75.30;;;;;;5024480;28;20187;-73
2021/06/01 01:40:32;;;;;;;13.43;8.60;;;16.00;75.60;;;;;;5020727;28;20029;-72
2021/06/01 01:43:20;;;;;;;12.93;7.55;;;15.90;76.20;;;;;;5020496;28;20568;-72
2021/06/01 01:46:10;;;;;;;14.88;8.07;;;15.90;76.10;;;;;;5026335;28;20064;-72
2021/06/01 01:49:02;;;;;;;12.52;8.30;;;15.90;76.50;;;;;;5012350;28;20064;-72
2021/06/01 01:51:51;;;;;;;11.50;8.02;;;15.90;77.00;;;;;;5030611;28;20041;-73
2021/06/01 01:54:35;;;;;;;14.30;8.13;;;15.90;77.20;;;;;;5000213;28;20041;-73
2021/06/01 01:57:20;;;;;;;11.80;7.82;;;15.90;77.00;;;;;;5019870;28;20044;-72
2021/06/01 02:00:09;;;;;;;12.77;7.00;;;15.90;77.10;;;;;;5007045;28;20096;-72
2021/06/01 02:02:54;;;;;;;14.15;7.63;;;15.90;77.50;;;;;;5000719;28;20057;-72
2021/06/01 02:05:40;;;;;;;11.00;7.30;;;15.90;77.50;;;;;;5005856;28;20040;-72
2021/06/01 02:08:24;;;;;;;14.98;7.88;;;15.80;77.60;;;;;;5013019;28;20501;-72
2021/06/01 02:11:09;;;;;;;10.70;6.77;;;15.80;77.80;;;;;;5017174;28;20037;-73
2021/06/01 02:14:02;;;;;;;11.73;8.07;;;15.80;78.00;;;;;;5012956;28;20056;-72
2021/06/01 02:16:47;;;;;;;9.45;7.07;;;15.80;78.40;;;;;;4994270;28;20118;-74
2021/06/01 02:19:32;;;;;;;12.07;7.38;;;15.80;78.40;;;;;;5016519;28;20095;-74
2021/06/01 02:22:27;;;;;;;13.35;7.55;;;15.80;78.40;;;;;;5029672;28;20508;-74
2021/06/01 02:25:24;;;;;;;11.60;7.45;;;15.80;78.80;;;;;;5024900;28;20045;-74
2021/06/01 02:28:20;;;;;;;10.63;7.38;;;15.80;79.20;;;;;;5023023;28;20040;-72
2021/06/01 02:31:09;;;;;;;14.10;8.18;;;15.70;79.30;;;;;;5031627;28;20059;-72
2021/06/01 02:33:56;;;;;;;14.60;7.88;;;15.70;79.60;;;;;;5016387;28;20092;-72
2021/06/01 02:36:42;;;;;;;12.13;7.35;;;15.80;79.90;;;;;;5013566;28;20041;-72
2021/06/01 02:39:27;;;;;;;12.68;7.80;;;15.70;80.40;;;;;;5017315;28;20071;-73
2021/06/01 02:42:12;;;;;;;11.23;6.93;;;15.70;80.20;;;;;;5013821;28;20053;-74
2021/06/01 02:44:56;;;;;;;13.73;7.18;;;15.60;80.60;;;;;;5024552;28;20036;-73
2021/06/01 02:47:41;;;;;;;15.50;7.80;;;15.60;80.40;;;;;;5026091;28;20040;-75
2021/06/01 02:50:27;;;;;;;;;;;15.60;80.60;;;;;;5012945;28;20101;-74
2021/06/01 02:53:12;;;;;;;12.73;7.38;;;15.60;79.50;;;;;;5012362;28;19951;-73
2021/06/01 02:55:56;;;;;;;;;;;15.50;80.30;;;;;;5031356;28;20056;-72
2021/06/01 02:58:43;;;;;;;10.65;6.97;;;15.50;79.30;;;;;;5017216;28;19951;-72
2021/06/01 03:01:28;;;;;;;9.30;7.22;;;15.50;80.40;;;;;;5007721;28;20530;-72
2021/06/01 03:04:12;;;;;;;;;;;15.50;80.90;;;;;;4997214;28;20061;-72
2021/06/01 03:06:41;;;;;;;9.98;6.43;;;15.60;79.80;;;;;;4994810;28;19909;-72
2021/06/01 03:09:06;;;;;;;11.48;7.20;;;15.60;81.60;;;;;;5005908;28;20037;-71
2021/06/01 03:11:33;;;;;;;10.93;7.20;;;15.60;81.40;;;;;;5005501;28;20022;-72
2021/06/01 03:13:58;;;;;;;15.43;7.93;;;15.60;81.60;;;;;;5005634;28;20391;-72
2021/06/01 03:16:24;;;;;;;15.07;8.05;;;15.60;81.70;;;;;;4993092;28;20037;-72
2021/06/01 03:18:49;;;;;;;13.02;7.90;;;15.60;81.90;;;;;;5006221;28;20018;-72
2021/06/01 03:21:15;;;;;;;9.15;7.13;;;15.60;82.10;;;;;;5012454;28;20533;-72
2021/06/01 03:23:42;;;;;;;11.15;7.30;;;15.60;82.30;;;;;;5001207;28;20545;-73
2021/06/01 03:26:08;;;;;;;10.38;7.07;;;15.60;82.70;;;;;;5012738;28;20022;-76
2021/06/01 03:28:34;;;;;;;10.07;6.38;;;15.60;82.80;;;;;;5008016;28;20045;-72
2021/06/01 03:31:18;;;;;;;9.02;6.47;;;15.60;82.80;;;;;;5012006;28;20092;-72
2021/06/01 03:34:03;;;;;;;10.88;7.43;;;15.70;82.70;;;;;;5001919;28;20105;-72
2021/06/01 03:36:47;;;;;;;11.48;7.85;;;15.70;82.70;;;;;;4992935;28;20410;-72
2021/06/01 03:39:32;;;;;;;13.20;7.45;;;15.70;82.80;;;;;;5000656;28;20433;-72
2021/06/01 03:41:58;;;;;;;12.82;7.70;;;15.70;82.70;;;;;;5011694;28;20026;-72
2021/06/01 03:44:24;;;;;;;11.95;7.65;;;15.70;83.00;;;;;;5005597;28;20026;-72
2021/06/01 03:46:50;;;;;;;9.90;7.18;;;15.80;83.20;;;;;;5011308;28;20046;-72
2021/06/01 03:49:15;;;;;;;13.70;7.40;;;15.80;83.30;;;;;;5000133;28;20041;-72
2021/06/01 03:51:59;;;;;;;9.05;6.18;;;15.90;83.30;;;;;;4992111;28;20502;-72
2021/06/01 03:54:44;;;;;;;12.25;6.85;;;15.90;83.50;;;;;;5010612;28;20033;-72
2021/06/01 03:57:28;;;;;;;11.55;7.10;;;16.00;83.50;;;;;;5008118;28;20095;-72
2021/06/01 04:00:15;;;;;;;9.85;6.82;;;16.00;83.50;;;;;;4992224;28;20041;-72
2021/06/01 04:03:00;;;;;;;10.88;7.00;;;16.00;83.60;;;;;;5006719;28;20548;-71
2021/06/01 04:05:26;;;;;;;12.95;6.85;;;16.10;83.60;;;;;;5010000;28;20026;-72
2021/06/01 04:07:52;;;;;;;11.15;7.53;;;16.10;83.70;;;;;;5005434;28;20088;-72
2021/06/01 04:10:17;;;;;;;12.20;7.97;;;16.10;83.90;;;;;;4992145;28;20042;-72
2021/06/01 04:12:43;;;;;;;11.50;6.95;;;16.20;84.00;;;;;;4997423;28;20033;-73
2021/06/01 04:15:10;;;;;;;11.23;7.30;;;16.20;84.10;;;;;;5011865;28;20060;-71
2021/06/01 04:17:35;;;;;;;10.57;7.13;;;16.30;84.00;;;;;;5007509;28;20507;-71
2021/06/01 04:20:02;;;;;;;10.38;6.35;;;16.30;84.10;;;;;;5002557;28;20033;-73
2021/06/01 04:22:28;;;;;;;10.38;7.18;;;16.30;84.50;;;;;;4994007;28;20522;-71
2021/06/01 04:24:53;;;;;;;11.95;7.30;;;16.40;84.70;;;;;;5007144;28;20130;-78
2021/06/01 04:27:19;;;;;;;11.75;7.70;;;16.50;84.70;;;;;;5006607;28;20224;-76
2021/06/01 04:30:06;;;;;;;13.80;7.67;;;16.60;84.60;;;;;;5003751;28;20042;-76
2021/06/01 04:32:31;;;;;;;12.45;7.55;;;16.60;84.50;;;;;;5001632;28;20065;-77
2021/06/01 04:34:57;;;;;;;13.48;7.85;;;16.70;84.80;;;;;;5002635;28;20062;-78
2021/06/01 04:37:22;;;;;;;15.50;7.35;;;16.80;84.80;;;;;;5008949;28;20033;-79
2021/06/01 04:39:48;;;;;;;12.57;7.70;;;16.90;84.50;;;;;;5002135;28;20455;-80
2021/06/01 04:42:32;;;;;;;14.63;7.70;;;16.90;84.40;;;;;;5003892;28;20102;-71
2021/06/01 04:45:16;;;;;;;11.93;6.93;;;17.00;84.20;;;;;;5005657;28;20200;-78
2021/06/01 04:48:01;;;;;;;11.65;7.93;;;17.10;84.00;;;;;;5006436;28;20029;-79
2021/06/01 04:50:45;;;;;;;14.00;7.27;;;17.10;83.90;;;;;;4992016;28;20088;-78
2021/06/01 04:53:29;;;;;;;12.00;7.55;;;17.20;83.90;;;;;;5005836;28;20376;-79
2021/06/01 04:56:13;;;;;;;11.57;7.00;;;17.20;83.40;;;;;;4994547;28;20032;-78
2021/06/01 04:58:57;;;;;;;10.30;6.72;;;17.30;83.40;;;;;;5007959;28;20057;-79
2021/06/01 05:01:41;;;;;;;11.43;7.00;;;17.40;83.40;;;;;;5004231;28;20123;-78
2021/06/01 05:04:25;;;;;;;9.90;6.13;;;17.40;82.70;;;;;;5011475;28;20065;-78
2021/06/01 05:07:09;;;;;;;17.30;7.43;;;17.50;82.20;;;;;;5007528;28;20582;-78
2021/06/01 05:09:59;;;;;;;12.93;6.53;;;17.50;82.00;;;;;;4997624;28;20097;-78
2021/06/01 05:12:43;;;;;;;15.70;7.95;;;17.60;82.40;;;;;;5004518;28;20291;-78
2021/06/01 05:15:27;;;;;;;11.10;7.68;;;17.70;81.90;;;;;;5011252;28;20056;-78
2021/06/01 05:18:12;;;;;;;15.38;7.95;;;17.70;82.60;;;;;;5009131;28;20044;-78
2021/06/01 05:20:56;;;;;;;12.53;7.43;;;17.80;82.20;;;;;;5010385;28;20041;-78
2021/06/01 05:23:40;;;;;;;12.60;7.55;;;17.90;82.40;;;;;;5005412;28;20415;-78
2021/06/01 05:26:24;;;;;;;12.35;7.65;;;18.00;81.90;;;;;;5009475;28;20041;-78
2021/06/01 05:29:08;;;;;;;14.97;8.23;;;18.00;80.90;;;;;;4996238;28;20084;-77
2021/06/01 05:32:06;;;;;;;14.88;8.05;;;18.00;81.40;;;;;;5005491;28;20329;-77
2021/06/01 05:34:58;;;;;;;13.45;7.55;;;18.10;80.70;;;;;;4997379;28;20036;-77
2021/06/01 05:37:42;;;;;;;16.08;8.23;;;18.10;81.10;;;;;;5005082;28;20049;-77
2021/06/01 05:40:26;;;;;;;16.05;8.55;;;18.30;80.70;;;;;;5004657;28;20041;-77
2021/06/01 05:43:10;;;;;;;16.33;8.63;;;18.30;80.20;;;;;;5004675;28;20069;-77
2021/06/01 05:45:54;;;;;;;11.20;7.53;;;18.40;80.20;;;;;;5000618;28;20311;-77
2021/06/01 05:48:39;;;;;;;17.73;8.60;;;18.40;79.60;;;;;;4999010;28;20433;-77
2021/06/01 05:51:30;;;;;;;15.93;7.72;;;18.40;79.40;;;;;;5014710;28;20049;-77
2021/06/01 05:54:14;;;;;;;12.25;7.57;;;18.50;79.50;;;;;;5009604;28;20041;-76
2021/06/01 05:56:58;;;;;;;19.23;7.20;;;18.50;79.40;;;;;;5006032;28;20048;-76
2021/06/01 05:59:42;;;;;;;13.93;7.47;;;18.60;79.10;;;;;;5006165;28;20308;-76
2021/06/01 06:02:26;;;;;;;17.43;7.13;;;18.70;79.30;;;;;;5017028;28;20122;-77
2021/06/01 06:05:11;;;;;;;13.15;7.53;;;18.80;78.60;;;;;;4996423;28;20037;-77
2021/06/01 06:08:03;;;;;;;13.35;7.75;;;18.80;78.60;;;;;;5008847;28;20065;-76
2021/06/01 06:10:48;;;;;;;17.15;7.65;;;18.80;78.60;;;;;;5012882;28;20118;-76
2021/06/01 06:13:32;;;;;;;13.80;7.43;;;18.80;78.30;;;;;;5016270;28;20453;-76
2021/06/01 06:16:20;;;;;;;14.90;7.40;;;18.90;78.40;;;;;;5001319;28;20066;-77
2021/06/01 06:19:04;;;;;;;12.02;7.30;;;19.00;77.80;;;;;;5014570;28;20049;-75
2021/06/01 06:21:48;;;;;;;13.50;7.60;;;19.10;77.70;;;;;;5001572;28;20236;-76
2021/06/01 06:24:32;;;;;;;12.83;7.07;;;19.10;77.80;;;;;;5005877;28;20281;-77
2021/06/01 06:27:17;;;;;;;10.63;6.73;;;19.20;77.90;;;;;;5002562;28;20033;-76
2021/06/01 06:30:04;;;;;;;14.95;7.20;;;19.20;78.00;;;;;;5018577;28;20365;-76
2021/06/01 06:32:48;;;;;;;12.43;6.78;;;19.30;77.70;;;;;;5020300;28;20056;-77
2021/06/01 06:35:32;;;;;;;11.87;7.33;;;19.50;77.60;;;;;;5020000;28;20302;-76
2021/06/01 06:38:16;;;;;;;15.43;6.83;;;19.60;77.20;;;;;;5019618;28;20048;-76
2021/06/01 06:41:13;;;;;;;14.18;7.88;;;19.70;77.20;;;;;;5009617;28;20044;-77
2021/06/01 06:43:58;;;;;;;15.63;7.32;;;19.80;76.80;;;;;;5004297;28;20533;-80
2021/06/01 06:46:44;;;;;;;17.57;7.13;;;19.90;76.20;;;;;;4995637;28;20112;-84
2021/06/01 06:49:28;;;;;;;11.50;6.88;;;20.10;75.90;;;;;;5010746;28;20060;-87
2021/06/01 06:52:13;;;;;;;13.55;7.45;;;20.10;75.90;;;;;;5003334;28;20117;-81
2021/06/01 06:54:57;;;;;;;17.33;8.02;;;20.20;75.10;;;;;;5000492;28;20097;-81
2021/06/01 06:57:42;;;;;;;12.43;7.07;;;20.30;75.20;;;;;;4996530;28;20056;-78
2021/06/01 07:00:26;;;;;;;12.18;7.10;;;20.40;74.70;;;;;;4996856;28;20626;-78
2021/06/01 07:03:10;;;;;;;;;;;20.50;74.30;;;;;;5016390;28;20143;-71
2021/06/01 07:05:55;;;;;;;12.90;7.40;;;20.60;74.00;;;;;;5032600;28;19912;-75
2021/06/01 07:08:39;;;;;;;13.30;7.83;;;20.60;74.30;;;;;;5006962;28;20064;-68
2021/06/01 07:11:23;;;;;;;13.25;7.15;;;20.70;73.40;;;;;;4998706;28;20464;-75
2021/06/01 07:14:16;;;;;;;15.50;6.90;;;20.80;73.70;;;;;;5007622;28;20493;-75
2021/06/01 07:17:01;;;;;;;11.90;7.05;;;20.90;74.50;;;;;;4997923;28;20045;-72
2021/06/01 07:19:47;;;;;;;14.30;7.97;;;21.00;74.10;;;;;;5004986;28;20489;-76
2021/06/01 07:22:31;;;;;;;16.45;7.63;;;21.10;74.50;;;;;;4996863;28;20425;-68
2021/06/01 07:25:15;;;;;;;16.58;8.18;;;21.20;73.90;;;;;;4997683;28;20544;-74
2021/06/01 07:28:01;;;;;;;10.93;7.30;;;21.40;74.10;;;;;;4999888;28;20036;-77
2021/06/01 07:30:45;;;;;;;15.27;7.63;;;21.40;73.30;;;;;;5007947;28;20073;-75
2021/06/01 07:33:29;;;;;;;11.67;7.80;;;21.50;72.80;;;;;;5002185;28;20163;-75
2021/06/01 07:36:13;;;;;;;11.05;7.10;;;21.60;72.70;;;;;;5001171;28;20288;-74
2021/06/01 07:38:57;;;;;;;11.32;6.43;;;21.60;70.60;;;;;;5009689;28;20045;-74
2021/06/01 07:41:41;;;;;;;10.63;6.50;;;21.70;71.30;;;;;;5011468;28;20044;-74
2021/06/01 07:44:25;;;;;;;9.57;6.57;;;21.80;70.90;;;;;;5002730;28;20800;-74
2021/06/01 07:47:09;;;;;;;11.32;5.75;;;21.80;69.60;;;;;;4998500;28;22167;-74
2021/06/01 07:49:53;;;;;;;15.77;5.53;;;21.90;69.30;;;;;;4995146;28;20569;-74
2021/06/01 07:52:38;;;;;;;13.30;5.70;;;21.90;68.80;;;;;;4995676;28;20497;-74
2021/06/01 07:55:22;;;;;;;9.25;5.47;;;21.90;67.90;;;;;;5005394;28;20037;-74
2021/06/01 07:58:06;;;;;;;8.50;4.70;;;21.90;67.10;;;;;;4994091;28;20627;-74
2021/06/01 08:00:50;;;;;;;13.15;6.15;;;22.00;67.70;;;;;;5008224;28;20402;-74
2021/06/01 08:03:34;;;;;;;11.57;5.97;;;22.10;67.10;;;;;;4999331;28;20554;-72
2021/06/01 08:06:18;;;;;;;7.50;5.28;;;22.10;66.50;;;;;;4992507;28;20058;-74
2021/06/01 08:09:04;;;;;;;8.45;4.70;;;22.10;65.50;;;;;;4992918;28;20045;-74
2021/06/01 08:11:48;;;;;;;6.40;4.60;;;22.00;64.40;;;;;;4992400;28;20315;-74
2021/06/01 08:14:32;;;;;;;6.03;4.50;;;22.00;64.30;;;;;;5000580;28;20037;-74
2021/06/01 08:17:16;;;;;;;8.37;4.10;;;22.10;64.10;;;;;;5000656;28;20620;-74
2021/06/01 08:20:15;;;;;;;9.80;4.95;;;22.20;63.60;;;;;;5004240;28;20037;-74
2021/06/01 08:22:59;;;;;;;9.20;4.50;;;22.30;63.70;;;;;;5006356;28;20088;-73
2021/06/01 08:25:44;;;;;;;16.60;4.95;;;22.50;63.20;;;;;;5001034;28;20041;-74
2021/06/01 08:28:28;;;;;;;7.30;4.40;;;22.50;61.00;;;;;;5000329;28;20057;-73
2021/06/01 08:31:12;;;;;;;6.43;4.22;;;22.60;61.00;;;;;;5004321;28;20061;-73
2021/06/01 08:33:56;;;;;;;8.02;4.22;;;22.80;60.80;;;;;;4997246;28;20041;-73
2021/06/01 08:36:40;;;;;;;9.57;3.90;;;22.90;60.20;;;;;;5005652;28;20572;-74
2021/06/01 08:39:26;;;;;;;10.40;4.45;;;23.10;59.80;;;;;;5007764;28;20505;-74
2021/06/01 08:41:58;;;;;;;8.98;4.35;;;23.30;59.20;;;;;;5005805;28;20416;-76
2021/06/01 08:44:42;;;;;;;12.15;4.40;;;23.50;58.90;;;;;;4992971;28;20042;-70
2021/06/01 08:47:27;;;;;;;9.05;4.25;;;23.70;57.00;;;;;;5008533;28;20053;-70
2021/06/01 08:50:12;;;;;;;6.25;3.70;;;23.70;55.50;;;;;;5004053;28;20037;-70
2021/06/01 08:52:56;;;;;;;10.20;4.03;;;23.80;55.30;;;;;;5007657;28;20053;-71
2021/06/01 08:55:41;;;;;;;8.82;4.53;;;23.80;54.60;;;;;;5008496;28;20502;-70
2021/06/01 08:58:25;;;;;;;7.38;4.30;;;23.80;55.00;;;;;;5009495;28;20103;-71
2021/06/01 09:01:11;;;;;;;7.90;4.35;;;23.80;55.10;;;;;;5008451;28;20088;-70
2021/06/01 09:03:58;;;;;;;7.38;4.85;;;23.70;54.40;;;;;;5006783;28;20108;-70
2021/06/01 09:06:46;;;;;;;7.80;4.13;;;23.80;54.50;;;;;;5007141;28;20032;-71
2021/06/01 09:09:59;;;;;;;8.85;4.30;;;23.80;54.80;;;;;;4997333;28;20087;-71
2021/06/01 09:22:43;;;;;;;7.32;4.32;;;24.20;54.30;;;;;;4999268;28;20475;-71
2021/06/01 09:28:57;;;;;;;8.75;4.25;;;24.40;52.20;;;;;;4995948;28;20049;-72
2021/06/01 09:31:41;;;;;;;;;;;24.50;52.20;;;;;;5003589;28;20045;-71
2021/06/01 09:34:33;;;;;;;7.10;4.30;;;24.60;52.80;;;;;;5004615;28;20447;-70
2021/06/01 09:37:20;;;;;;;5.88;3.63;;;24.70;51.70;;;;;;5004597;28;20061;-70
2021/06/01 09:40:08;;;;;;;5.63;3.72;;;24.70;50.30;;;;;;5002208;28;20042;-71
2021/06/01 09:42:52;;;;;;;7.07;4.38;;;24.90;49.50;;;;;;5009026;28;20048;-70
2021/06/01 09:45:37;;;;;;;6.05;4.00;;;24.90;50.10;;;;;;5013464;28;20141;-70
2021/06/01 09:48:24;;;;;;;8.77;3.92;;;25.10;49.70;;;;;;5005494;28;20034;-71
2021/06/01 09:51:10;;;;;;;5.38;3.45;;;25.20;50.00;;;;;;5013279;28;20048;-71
2021/06/01 09:53:56;;;;;;;9.77;3.42;;;25.30;48.90;;;;;;5011265;28;20063;-71
2021/06/01 09:56:40;;;;;;;7.78;3.30;;;25.40;48.10;;;;;;5003570;28;20072;-71
2021/06/01 09:59:24;;;;;;;9.75;3.97;;;25.40;48.50;;;;;;5012544;28;20049;-70
2021/06/01 10:02:32;;;;;;;4.82;3.40;;;25.40;46.70;;;;;;5004325;28;20080;-70
2021/06/01 10:05:19;;;;;;;5.25;3.30;;;25.40;46.40;;;;;;5005842;28;20048;-71
2021/06/01 10:08:19;;;;;;;12.00;3.92;;;25.40;46.10;;;;;;5005570;28;20032;-70
2021/06/01 10:11:11;;;;;;;4.90;3.33;;;25.40;46.00;;;;;;4998612;28;20061;-71
2021/06/01 10:13:55;;;;;;;4.03;2.67;;;25.30;44.80;;;;;;4996676;28;20100;-71
2021/06/01 10:16:40;;;;;;;3.72;2.55;;;25.40;44.00;;;;;;5003773;28;20177;-70
2021/06/01 10:19:24;;;;;;;6.47;2.25;;;25.40;42.00;;;;;;5000801;28;20036;-70
2021/06/01 10:22:08;;;;;;;5.80;2.80;;;25.40;41.70;;;;;;4998768;28;21082;-69
2021/06/01 10:24:52;;;;;;;2.55;2.17;;;25.30;40.80;;;;;;5001207;28;20475;-69
2021/06/01 10:27:36;;;;;;;3.22;2.38;;;25.30;40.70;;;;;;4998187;28;20194;-70
2021/06/01 10:30:21;;;;;;;5.07;2.60;;;25.30;41.10;;;;;;5008012;28;20064;-70
2021/06/01 10:33:13;;;;;;;6.45;2.97;;;25.30;41.60;;;;;;5009292;28;20033;-70
2021/06/01 10:36:31;;;;;;;4.38;2.85;;;25.30;41.10;;;;;;5003281;28;20084;-70
2021/06/01 10:42:31;;;;;;;2.97;2.35;;;25.30;39.30;;;;;;4997643;28;20112;-69
2021/06/01 10:51:28;;;;;;;4.10;2.60;;;25.50;39.60;;;;;;5003115;28;20390;-70
2021/06/01 10:54:38;;;;;;;3.65;2.80;;;25.60;39.90;;;;;;5009484;28;20080;-69
2021/06/01 10:57:23;;;;;;;4.30;3.08;;;25.60;39.60;;;;;;5007794;28;20402;-70
2021/06/01 11:03:24;;;;;;;6.32;3.15;;;25.90;39.40;;;;;;5006408;28;20048;-70
2021/06/01 11:06:11;;;;;;;6.82;3.53;;;25.90;39.90;;;;;;5010129;28;20664;-70
2021/06/01 11:08:54;;;;;;;7.28;3.08;;;25.90;40.80;;;;;;5010628;28;20128;-70
2021/06/01 11:11:39;;;;;;;5.38;3.05;;;26.00;40.70;;;;;;5013053;28;20048;-70
2021/06/01 11:14:28;;;;;;;5.75;2.72;;;26.20;41.10;;;;;;4999284;28;20095;-70
2021/06/01 11:17:13;;;;;;;8.27;3.22;;;26.20;40.50;;;;;;4992735;28;20088;-68
2021/06/01 11:20:12;;;;;;;5.38;3.17;;;26.30;41.30;;;;;;4993497;28;20054;-68
2021/06/01 11:23:10;;;;;;;6.47;2.95;;;26.40;41.30;;;;;;5000196;28;20581;-68
2021/06/01 11:32:48;;;;;;;6.15;3.33;;;26.60;40.50;;;;;;5009906;28;20393;-68
2021/06/01 11:35:32;;;;;;;5.72;2.72;;;26.60;39.90;;;;;;5003565;28;20414;-68
2021/06/01 11:38:38;;;;;;;4.55;2.83;;;26.50;38.40;;;;;;5001414;28;20557;-68
2021/06/01 11:44:16;;;;;;;4.97;3.10;;;26.30;39.40;;;;;;4997125;28;20080;-68
2021/06/01 11:47:27;;;;;;;5.43;3.05;;;26.30;39.50;;;;;;5004363;28;20121;-69
2021/06/01 11:53:16;;;;;;;4.88;2.88;;;26.30;38.70;;;;;;5005851;28;20037;-68
2021/06/01 11:56:03;;;;;;;8.48;3.05;;;26.20;38.70;;;;;;5006070;28;20137;-68
2021/06/01 12:05:20;;;;;;;5.03;3.00;;;26.00;39.70;;;;;;4990972;28;20049;-68
2021/06/01 12:11:22;;;;;;;4.53;2.95;;;26.00;39.80;;;;;;5010316;28;20029;-68
2021/06/01 12:17:06;;;;;;;6.18;2.97;;;25.80;38.40;;;;;;5008822;28;20048;-69
2021/06/01 12:17:18;;;;;;;4.90;2.75;;;25.70;38.30;;;;;;5005504;28;20057;-68
2021/06/01 12:20:06;;;;;;;5.57;2.88;;;25.70;38.60;;;;;;5002352;28;20080;-68
2021/06/01 12:22:50;;;;;;;4.90;2.90;;;25.70;38.10;;;;;;5009146;28;20530;-68
2021/06/01 12:25:34;;;;;;;4.57;2.97;;;25.80;38.90;;;;;;5008107;28;20100;-68
2021/06/01 12:30:54;;;;;;;6.50;2.97;;;25.70;38.00;;;;;;5008531;28;20045;-68
2021/06/01 12:31:24;;;;;;;4.05;2.67;;;25.80;38.90;;;;;;5011186;28;20121;-68
2021/06/01 12:34:14;;;;;;;4.57;2.55;;;25.80;37.60;;;;;;5006830;28;20056;-68
2021/06/01 12:43:16;;;;;;;5.00;2.80;;;26.10;38.60;;;;;;5000621;28;22500;-68
2021/06/01 13:32:43;;;;;;;4.07;1.83;;;26.70;34.60;;;;;;5011202;28;20185;-68
2021/06/01 13:38:54;;;;;;;3.80;1.60;;;26.90;33.50;;;;;;5011607;28;20049;-69
2021/06/01 13:48:07;;;;;;;4.30;1.90;;;27.00;31.90;;;;;;5012483;28;20045;-67
2021/06/01 13:51:23;;;;;;;8.98;2.25;;;27.00;31.90;;;;;;4998116;28;20165;-68
2021/06/01 14:36:57;;;;;;;4.25;2.00;;;26.70;30.10;;;;;;4994921;28;20060;-69
2021/06/01 14:55:29;;;;;;;2.53;1.63;;;26.70;31.40;;;;;;5013004;28;20048;-68
2021/06/01 15:04:28;;;;;;;7.95;2.38;;;26.50;32.00;;;;;;4997203;28;20125;-68
2021/06/01 15:24:27;;;;;;;3.50;1.90;;;26.40;32.60;;;;;;4997809;28;20042;-68
2021/06/01 15:32:07;;;;;;;4.22;2.25;;;26.40;33.10;;;;;;4997637;28;20447;-69
2021/06/01 15:51:42;;;;;;;2.80;1.80;;;25.90;33.20;;;;;;4993752;28;20067;-69
2021/06/01 16:13:34;;;;;;;9.05;3.67;;;24.80;41.40;;;;;;4996898;28;20064;-69
2021/06/01 16:21:23;;;;;;;6.32;3.60;;;24.50;42.60;;;;;;4996239;28;20033;-68
2021/06/01 17:03:23;;;;;;;5.05;3.10;;;22.00;49.50;;;;;;5003816;28;20050;-70
2021/06/01 17:05:41;;;;;;;9.05;3.70;;;22.00;49.80;;;;;;5001577;28;20112;-68
2021/06/01 17:08:47;;;;;;;6.65;3.83;;;21.90;49.50;;;;;;5006822;28;20475;-68
2021/06/01 17:11:15;;;;;;;5.78;3.65;;;21.90;50.10;;;;;;5005471;28;20034;-68
2021/06/01 17:14:01;;;;;;;5.75;3.65;;;21.90;50.30;;;;;;5002983;28;20382;-68
2021/06/01 17:16:49;;;;;;;5.95;3.35;;;21.90;50.10;;;;;;4994272;28;20061;-68
2021/06/01 17:19:58;;;;;;;5.80;3.70;;;22.00;50.00;;;;;;4992414;28;20418;-68
2021/06/01 17:23:09;;;;;;;5.72;3.40;;;22.00;49.90;;;;;;4995276;28;20037;-68
2021/06/01 17:32:21;;;;;;;5.93;3.60;;;22.00;49.70;;;;;;4993509;28;20034;-67
2021/06/01 17:35:06;;;;;;;8.27;3.60;;;22.00;50.00;;;;;;5000764;28;20060;-70
2021/06/01 17:37:50;;;;;;;4.63;3.70;;;21.90;50.20;;;;;;5006625;28;20061;-70
2021/06/01 17:40:36;;;;;;;7.07;3.88;;;21.90;51.00;;;;;;5011215;28;20113;-71
2021/06/01 17:43:25;;;;;;;7.82;4.55;;;21.80;52.20;;;;;;4993243;28;20092;-71
2021/06/01 17:46:12;;;;;;;11.45;5.72;;;21.80;53.30;;;;;;5010075;28;20041;-69
2021/06/01 17:48:57;;;;;;;7.50;4.95;;;21.70;56.30;;;;;;5006130;28;20033;-71
2021/06/01 17:51:42;;;;;;;13.93;5.32;;;21.70;57.00;;;;;;5014389;28;20158;-70
2021/06/01 17:54:32;;;;;;;9.88;5.68;;;21.70;59.10;;;;;;5009269;28;20037;-70
2021/06/01 17:57:19;;;;;;;9.38;5.55;;;21.60;60.10;;;;;;5011454;28;20112;-69
2021/06/01 18:00:03;;;;;;;10.02;5.55;;;21.60;60.80;;;;;;5011459;28;20040;-69
2021/06/01 18:02:49;;;;;;;7.72;5.18;;;21.60;61.00;;;;;;5009733;28;20107;-70
2021/06/01 18:05:40;;;;;;;10.10;5.00;;;21.50;62.00;;;;;;5009853;28;20518;-69
2021/06/01 18:08:37;;;;;;;5.95;4.30;;;21.50;61.80;;;;;;5001387;28;20044;-70
2021/06/01 18:35:09;;;;;;;5.97;3.90;;;20.70;63.60;;;;;;5004776;28;20052;-69
2021/06/01 18:36:34;;;;;;;7.13;4.35;;;20.60;65.40;;;;;;5005881;28;20105;-69
2021/06/01 19:00:50;;;;;;;7.32;3.35;;;20.00;66.50;;;;;;5004096;28;20060;-72
2021/06/01 19:24:25;;;;;;;;;;;19.20;62.00;;;;;;5011633;28;20100;-72
2021/06/01 19:42:41;;;;;;;3.60;1.98;;;18.90;60.30;;;;;;5009125;28;20095;-72
2021/06/01 19:51:40;;;;;;;3.75;1.73;;;18.80;59.10;;;;;;5009360;28;20036;-72
2021/06/01 19:54:26;;;;;;;2.35;1.55;;;18.80;58.70;;;;;;5004944;28;20127;-72
2021/06/01 19:57:12;;;;;;;4.65;1.60;;;18.70;58.10;;;;;;5006032;28;20087;-72
2021/06/01 19:59:57;;;;;;;2.58;1.50;;;18.70;57.80;;;;;;4992895;28;20088;-75
2021/06/01 20:02:41;;;;;;;3.80;1.40;;;18.70;57.70;;;;;;5004612;28;20044;-73
2021/06/01 20:05:27;;;;;;;4.88;1.80;;;18.60;57.30;;;;;;5005950;28;20040;-73
2021/06/01 20:08:11;;;;;;;;;;;18.50;57.30;;;;;;5009038;28;20048;-73
2021/06/01 20:10:56;;;;;;;2.50;1.63;;;18.50;57.10;;;;;;5007499;28;19915;-73
2021/06/01 20:13:39;;;;;;;5.43;1.50;;;18.40;57.00;;;;;;5011344;28;20080;-73
2021/06/01 20:16:24;;;;;;;3.95;1.50;;;18.40;57.10;;;;;;5001573;28;20451;-73
2021/06/01 20:19:14;;;;;;;3.13;1.58;;;18.40;57.20;;;;;;5007319;28;20080;-73
2021/06/01 20:22:00;;;;;;;4.90;1.60;;;18.30;57.10;;;;;;5001754;28;20064;-72
2021/06/01 20:24:45;;;;;;;3.05;1.50;;;18.30;57.10;;;;;;4995828;28;20085;-72
2021/06/01 20:27:29;;;;;;;2.53;1.27;;;18.30;56.80;;;;;;5007574;28;20037;-70
2021/06/01 20:30:26;;;;;;;3.87;1.60;;;18.30;56.90;;;;;;4999784;28;20048;-70